sensor_id;sensor_type;location;lat;lon;timestamp;temperature;humidity
73777;DHT22;62088;50.240;2.696;2022-12-10T00:01:22;1.80;85.90
73777;DHT22;62088;50.240;2.696;2022-12-10T00:03:49;1.80;85.90
73777;DHT22;62088;50.240;2.696;2022-12-10T00:06:20;1.80;85.90
73777;DHT22;62088;50.240;2.696;2022-12-10T00:08:47;1.80;85.90
73777;DHT22;62088;50.240;2.696;2022-12-10T00:11:16;1.90;85.90
73777;DHT22;62088;50.240;2.696;2022-12-10T00:13:45;1.90;85.90
73777;DHT22;62088;50.240;2.696;2022-12-10T00:16:14;1.80;85.90
73777;DHT22;62088;50.240;2.696;2022-12-10T00:18:42;1.90;85.90
73777;DHT22;62088;50.240;2.696;2022-12-10T00:21:12;1.80;85.90
73777;DHT22;62088;50.240;2.696;2022-12-10T00:23:39;1.80;85.90
73777;DHT22;62088;50.240;2.696;2022-12-10T00:26:12;1.90;85.90
73777;DHT22;62088;50.240;2.696;2022-12-10T00:28:40;1.90;85.90
73777;DHT22;62088;50.240;2.696;2022-12-10T00:31:16;1.90;85.90
73777;DHT22;62088;50.240;2.696;2022-12-10T00:33:45;1.90;85.90
73777;DHT22;62088;50.240;2.696;2022-12-10T00:36:18;1.90;86.00
73777;DHT22;62088;50.240;2.696;2022-12-10T00:38:46;1.90;85.90
73777;DHT22;62088;50.240;2.696;2022-12-10T00:41:14;1.90;86.00
73777;DHT22;62088;50.240;2.696;2022-12-10T00:43:42;1.90;86.00
73777;DHT22;62088;50.240;2.696;2022-12-10T00:46:11;1.90;85.90
73777;DHT22;62088;50.240;2.696;2022-12-10T00:48:40;1.90;86.00
73777;DHT22;62088;50.240;2.696;2022-12-10T00:51:10;1.90;85.90
73777;DHT22;62088;50.240;2.696;2022-12-10T00:53:39;1.90;85.90
73777;DHT22;62088;50.240;2.696;2022-12-10T00:56:08;1.90;86.00
73777;DHT22;62088;50.240;2.696;2022-12-10T00:58:37;1.90;86.00
73777;DHT22;62088;50.240;2.696;2022-12-10T01:01:20;1.90;85.90
73777;DHT22;62088;50.240;2.696;2022-12-10T01:03:50;1.90;86.00
73777;DHT22;62088;50.240;2.696;2022-12-10T01:06:23;1.90;85.90
73777;DHT22;62088;50.240;2.696;2022-12-10T01:08:52;1.90;85.90
73777;DHT22;62088;50.240;2.696;2022-12-10T01:11:20;1.90;86.00
73777;DHT22;62088;50.240;2.696;2022-12-10T01:13:48;1.90;85.90
73777;DHT22;62088;50.240;2.696;2022-12-10T01:16:19;1.90;86.00
73777;DHT22;62088;50.240;2.696;2022-12-10T01:18:47;1.90;86.00
73777;DHT22;62088;50.240;2.696;2022-12-10T01:21:17;1.90;85.90
73777;DHT22;62088;50.240;2.696;2022-12-10T01:23:46;1.90;85.90
73777;DHT22;62088;50.240;2.696;2022-12-10T01:26:16;1.90;86.00
73777;DHT22;62088;50.240;2.696;2022-12-10T01:28:44;1.90;86.00
73777;DHT22;62088;50.240;2.696;2022-12-10T01:31:16;1.90;86.00
73777;DHT22;62088;50.240;2.696;2022-12-10T01:33:44;1.90;85.90
73777;DHT22;62088;50.240;2.696;2022-12-10T01:36:17;1.90;85.90
73777;DHT22;62088;50.240;2.696;2022-12-10T01:38:45;1.90;86.00
73777;DHT22;62088;50.240;2.696;2022-12-10T01:41:30;1.90;86.00
73777;DHT22;62088;50.240;2.696;2022-12-10T01:44:00;1.90;86.00
73777;DHT22;62088;50.240;2.696;2022-12-10T01:46:36;1.90;86.00
73777;DHT22;62088;50.240;2.696;2022-12-10T01:49:07;1.90;86.00
73777;DHT22;62088;50.240;2.696;2022-12-10T01:51:37;1.90;86.00
73777;DHT22;62088;50.240;2.696;2022-12-10T01:54:07;1.90;86.00
73777;DHT22;62088;50.240;2.696;2022-12-10T01:56:36;1.90;86.00
73777;DHT22;62088;50.240;2.696;2022-12-10T01:59:05;1.90;86.00
73777;DHT22;62088;50.240;2.696;2022-12-10T02:04:31;1.90;86.00
73777;DHT22;62088;50.240;2.696;2022-12-10T02:20:29;1.90;86.10
73777;DHT22;62088;50.240;2.696;2022-12-10T02:23:12;1.90;86.10
73777;DHT22;62088;50.240;2.696;2022-12-10T02:25:48;1.90;86.10
73777;DHT22;62088;50.240;2.696;2022-12-10T02:31:05;1.90;86.10
73777;DHT22;62088;50.240;2.696;2022-12-10T02:33:35;1.90;86.10
73777;DHT22;62088;50.240;2.696;2022-12-10T02:36:05;1.90;86.20
73777;DHT22;62088;50.240;2.696;2022-12-10T02:38:36;1.90;86.20
73777;DHT22;62088;50.240;2.696;2022-12-10T02:41:06;1.90;86.20
73777;DHT22;62088;50.240;2.696;2022-12-10T02:43:35;1.90;86.20
73777;DHT22;62088;50.240;2.696;2022-12-10T02:46:04;1.90;86.20
73777;DHT22;62088;50.240;2.696;2022-12-10T02:48:33;1.90;86.20
73777;DHT22;62088;50.240;2.696;2022-12-10T02:51:00;1.90;86.20
73777;DHT22;62088;50.240;2.696;2022-12-10T02:53:27;1.80;86.20
73777;DHT22;62088;50.240;2.696;2022-12-10T02:56:08;1.80;86.20
73777;DHT22;62088;50.240;2.696;2022-12-10T03:04:53;1.80;86.20
73777;DHT22;62088;50.240;2.696;2022-12-10T03:07:04;1.80;86.20
73777;DHT22;62088;50.240;2.696;2022-12-10T03:09:58;1.80;86.10
73777;DHT22;62088;50.240;2.696;2022-12-10T03:12:37;1.80;86.10
73777;DHT22;62088;50.240;2.696;2022-12-10T03:15:08;1.80;86.10
73777;DHT22;62088;50.240;2.696;2022-12-10T03:17:38;1.80;86.10
73777;DHT22;62088;50.240;2.696;2022-12-10T03:20:08;1.70;86.10
73777;DHT22;62088;50.240;2.696;2022-12-10T03:22:39;1.70;86.20
73777;DHT22;62088;50.240;2.696;2022-12-10T03:25:09;1.70;86.20
73777;DHT22;62088;50.240;2.696;2022-12-10T03:27:39;1.70;86.20
73777;DHT22;62088;50.240;2.696;2022-12-10T03:30:08;1.70;86.10
73777;DHT22;62088;50.240;2.696;2022-12-10T03:32:35;1.70;86.10
73777;DHT22;62088;50.240;2.696;2022-12-10T03:35:03;1.70;86.10
73777;DHT22;62088;50.240;2.696;2022-12-10T03:37:31;1.70;86.10
73777;DHT22;62088;50.240;2.696;2022-12-10T03:39:59;1.70;86.10
73777;DHT22;62088;50.240;2.696;2022-12-10T03:42:26;1.70;86.10
73777;DHT22;62088;50.240;2.696;2022-12-10T03:44:53;1.70;86.00
73777;DHT22;62088;50.240;2.696;2022-12-10T03:47:20;1.70;86.00
73777;DHT22;62088;50.240;2.696;2022-12-10T03:49:47;1.70;86.00
73777;DHT22;62088;50.240;2.696;2022-12-10T03:52:14;1.60;86.00
73777;DHT22;62088;50.240;2.696;2022-12-10T03:54:42;1.60;86.00
73777;DHT22;62088;50.240;2.696;2022-12-10T03:57:09;1.60;85.90
73777;DHT22;62088;50.240;2.696;2022-12-10T03:59:36;1.50;85.90
73777;DHT22;62088;50.240;2.696;2022-12-10T04:02:03;1.50;85.90
73777;DHT22;62088;50.240;2.696;2022-12-10T04:04:30;1.50;85.90
73777;DHT22;62088;50.240;2.696;2022-12-10T04:06:57;1.50;85.90
73777;DHT22;62088;50.240;2.696;2022-12-10T04:09:24;1.40;85.90
73777;DHT22;62088;50.240;2.696;2022-12-10T04:11:55;1.40;85.90
73777;DHT22;62088;50.240;2.696;2022-12-10T04:14:23;1.40;85.90
73777;DHT22;62088;50.240;2.696;2022-12-10T04:17:09;1.40;85.90
73777;DHT22;62088;50.240;2.696;2022-12-10T04:19:36;1.40;85.90
73777;DHT22;62088;50.240;2.696;2022-12-10T04:22:03;1.30;85.80
73777;DHT22;62088;50.240;2.696;2022-12-10T04:24:49;1.30;85.80
73777;DHT22;62088;50.240;2.696;2022-12-10T04:27:39;1.30;85.90
73777;DHT22;62088;50.240;2.696;2022-12-10T04:30:08;1.20;85.90
73777;DHT22;62088;50.240;2.696;2022-12-10T04:32:37;1.20;85.90
73777;DHT22;62088;50.240;2.696;2022-12-10T04:35:04;1.20;85.80
73777;DHT22;62088;50.240;2.696;2022-12-10T04:37:31;1.20;85.90
73777;DHT22;62088;50.240;2.696;2022-12-10T04:39:58;1.20;85.80
73777;DHT22;62088;50.240;2.696;2022-12-10T04:42:25;1.20;85.90
73777;DHT22;62088;50.240;2.696;2022-12-10T04:44:52;1.20;85.80
73777;DHT22;62088;50.240;2.696;2022-12-10T04:47:20;1.20;85.90
73777;DHT22;62088;50.240;2.696;2022-12-10T04:49:47;1.20;85.90
73777;DHT22;62088;50.240;2.696;2022-12-10T04:52:15;1.20;85.90
73777;DHT22;62088;50.240;2.696;2022-12-10T04:54:43;1.20;85.80
73777;DHT22;62088;50.240;2.696;2022-12-10T04:57:10;1.20;85.80
73777;DHT22;62088;50.240;2.696;2022-12-10T04:59:38;1.20;85.80
73777;DHT22;62088;50.240;2.696;2022-12-10T05:02:05;1.20;85.70
73777;DHT22;62088;50.240;2.696;2022-12-10T05:04:32;1.10;85.70
73777;DHT22;62088;50.240;2.696;2022-12-10T05:07:00;1.10;85.70
73777;DHT22;62088;50.240;2.696;2022-12-10T05:09:27;1.10;85.70
73777;DHT22;62088;50.240;2.696;2022-12-10T05:11:54;1.10;85.70
73777;DHT22;62088;50.240;2.696;2022-12-10T05:14:21;1.00;85.70
73777;DHT22;62088;50.240;2.696;2022-12-10T05:16:51;1.00;85.70
73777;DHT22;62088;50.240;2.696;2022-12-10T05:19:19;1.00;85.60
73777;DHT22;62088;50.240;2.696;2022-12-10T05:21:46;1.00;85.60
73777;DHT22;62088;50.240;2.696;2022-12-10T05:24:32;1.00;85.60
73777;DHT22;62088;50.240;2.696;2022-12-10T05:26:59;1.00;85.70
73777;DHT22;62088;50.240;2.696;2022-12-10T05:29:27;1.00;85.70
73777;DHT22;62088;50.240;2.696;2022-12-10T05:31:54;1.00;85.70
73777;DHT22;62088;50.240;2.696;2022-12-10T05:34:21;1.00;85.70
73777;DHT22;62088;50.240;2.696;2022-12-10T05:36:48;1.00;85.70
73777;DHT22;62088;50.240;2.696;2022-12-10T05:39:15;1.00;85.70
73777;DHT22;62088;50.240;2.696;2022-12-10T05:41:42;1.00;85.70
73777;DHT22;62088;50.240;2.696;2022-12-10T05:44:11;1.10;85.70
73777;DHT22;62088;50.240;2.696;2022-12-10T05:46:38;1.00;85.60
73777;DHT22;62088;50.240;2.696;2022-12-10T05:49:06;1.00;85.60
73777;DHT22;62088;50.240;2.696;2022-12-10T05:51:37;1.00;85.60
73777;DHT22;62088;50.240;2.696;2022-12-10T05:54:06;1.00;85.70
73777;DHT22;62088;50.240;2.696;2022-12-10T05:56:35;1.00;85.70
73777;DHT22;62088;50.240;2.696;2022-12-10T05:59:03;1.00;85.70
73777;DHT22;62088;50.240;2.696;2022-12-10T06:01:33;1.00;85.60
73777;DHT22;62088;50.240;2.696;2022-12-10T06:04:03;1.00;85.60
73777;DHT22;62088;50.240;2.696;2022-12-10T06:06:33;1.00;85.60
73777;DHT22;62088;50.240;2.696;2022-12-10T06:09:01;1.00;85.60
73777;DHT22;62088;50.240;2.696;2022-12-10T06:11:28;1.00;85.50
73777;DHT22;62088;50.240;2.696;2022-12-10T06:13:58;1.00;85.50
73777;DHT22;62088;50.240;2.696;2022-12-10T06:16:26;0.90;85.50
73777;DHT22;62088;50.240;2.696;2022-12-10T06:18:54;0.90;85.50
73777;DHT22;62088;50.240;2.696;2022-12-10T06:21:21;0.90;85.50
73777;DHT22;62088;50.240;2.696;2022-12-10T06:23:49;0.90;85.50
73777;DHT22;62088;50.240;2.696;2022-12-10T06:26:21;0.90;85.50
73777;DHT22;62088;50.240;2.696;2022-12-10T06:28:49;0.90;85.50
73777;DHT22;62088;50.240;2.696;2022-12-10T06:31:17;1.00;85.50
73777;DHT22;62088;50.240;2.696;2022-12-10T06:33:45;1.00;85.50
73777;DHT22;62088;50.240;2.696;2022-12-10T06:36:13;1.00;85.50
73777;DHT22;62088;50.240;2.696;2022-12-10T06:38:42;0.90;85.40
73777;DHT22;62088;50.240;2.696;2022-12-10T06:41:11;1.00;85.40
73777;DHT22;62088;50.240;2.696;2022-12-10T06:43:38;1.00;85.50
73777;DHT22;62088;50.240;2.696;2022-12-10T06:46:07;1.00;85.40
73777;DHT22;62088;50.240;2.696;2022-12-10T06:48:35;1.00;85.40
73777;DHT22;62088;50.240;2.696;2022-12-10T06:51:03;1.00;85.40
73777;DHT22;62088;50.240;2.696;2022-12-10T06:53:31;1.00;85.30
73777;DHT22;62088;50.240;2.696;2022-12-10T06:55:59;1.00;85.30
73777;DHT22;62088;50.240;2.696;2022-12-10T06:58:27;1.00;85.20
73777;DHT22;62088;50.240;2.696;2022-12-10T07:01:05;1.00;85.20
73777;DHT22;62088;50.240;2.696;2022-12-10T07:03:33;1.00;85.20
73777;DHT22;62088;50.240;2.696;2022-12-10T07:06:01;1.00;85.20
73777;DHT22;62088;50.240;2.696;2022-12-10T07:08:28;1.00;85.10
73777;DHT22;62088;50.240;2.696;2022-12-10T07:10:56;1.00;85.10
73777;DHT22;62088;50.240;2.696;2022-12-10T07:13:24;1.00;85.10
73777;DHT22;62088;50.240;2.696;2022-12-10T07:15:56;1.00;85.10
73777;DHT22;62088;50.240;2.696;2022-12-10T07:18:24;1.00;85.00
73777;DHT22;62088;50.240;2.696;2022-12-10T07:20:51;0.90;85.00
73777;DHT22;62088;50.240;2.696;2022-12-10T07:23:19;1.00;84.80
73777;DHT22;62088;50.240;2.696;2022-12-10T07:25:46;0.90;84.80
73777;DHT22;62088;50.240;2.696;2022-12-10T07:28:13;0.90;84.70
73777;DHT22;62088;50.240;2.696;2022-12-10T07:30:40;0.90;84.70
73777;DHT22;62088;50.240;2.696;2022-12-10T07:33:07;0.90;84.60
73777;DHT22;62088;50.240;2.696;2022-12-10T07:35:34;0.90;84.60
73777;DHT22;62088;50.240;2.696;2022-12-10T07:38:01;0.90;84.50
73777;DHT22;62088;50.240;2.696;2022-12-10T07:40:28;0.90;84.40
73777;DHT22;62088;50.240;2.696;2022-12-10T07:42:55;0.90;84.30
73777;DHT22;62088;50.240;2.696;2022-12-10T07:45:22;0.90;84.30
73777;DHT22;62088;50.240;2.696;2022-12-10T07:47:49;0.90;84.20
73777;DHT22;62088;50.240;2.696;2022-12-10T07:50:16;0.80;84.10
73777;DHT22;62088;50.240;2.696;2022-12-10T07:52:43;0.90;84.10
73777;DHT22;62088;50.240;2.696;2022-12-10T07:55:10;0.80;84.00
73777;DHT22;62088;50.240;2.696;2022-12-10T07:57:37;0.80;84.00
73777;DHT22;62088;50.240;2.696;2022-12-10T08:00:04;0.80;83.90
73777;DHT22;62088;50.240;2.696;2022-12-10T08:02:37;0.80;83.80
73777;DHT22;62088;50.240;2.696;2022-12-10T08:05:05;0.70;83.70
73777;DHT22;62088;50.240;2.696;2022-12-10T08:07:32;0.70;83.70
73777;DHT22;62088;50.240;2.696;2022-12-10T08:09:59;0.70;83.70
73777;DHT22;62088;50.240;2.696;2022-12-10T08:12:26;0.70;83.60
73777;DHT22;62088;50.240;2.696;2022-12-10T08:14:53;0.70;83.60
73777;DHT22;62088;50.240;2.696;2022-12-10T08:17:20;0.70;83.50
73777;DHT22;62088;50.240;2.696;2022-12-10T08:19:47;0.70;83.50
73777;DHT22;62088;50.240;2.696;2022-12-10T08:22:14;0.70;83.40
73777;DHT22;62088;50.240;2.696;2022-12-10T08:24:41;0.70;83.40
73777;DHT22;62088;50.240;2.696;2022-12-10T08:27:08;0.60;83.40
73777;DHT22;62088;50.240;2.696;2022-12-10T08:29:35;0.60;83.40
73777;DHT22;62088;50.240;2.696;2022-12-10T08:32:02;0.60;83.40
73777;DHT22;62088;50.240;2.696;2022-12-10T08:34:30;0.60;83.40
73777;DHT22;62088;50.240;2.696;2022-12-10T08:36:57;0.60;83.40
73777;DHT22;62088;50.240;2.696;2022-12-10T08:39:24;0.60;83.40
73777;DHT22;62088;50.240;2.696;2022-12-10T08:41:51;0.50;83.50
73777;DHT22;62088;50.240;2.696;2022-12-10T08:44:18;0.50;83.50
73777;DHT22;62088;50.240;2.696;2022-12-10T08:46:45;0.50;83.50
73777;DHT22;62088;50.240;2.696;2022-12-10T08:49:12;0.50;83.60
73777;DHT22;62088;50.240;2.696;2022-12-10T08:51:41;0.50;83.70
73777;DHT22;62088;50.240;2.696;2022-12-10T08:54:08;0.50;83.70
73777;DHT22;62088;50.240;2.696;2022-12-10T08:56:35;0.40;83.80
73777;DHT22;62088;50.240;2.696;2022-12-10T08:59:02;0.40;83.90
73777;DHT22;62088;50.240;2.696;2022-12-10T09:01:29;0.40;83.90
73777;DHT22;62088;50.240;2.696;2022-12-10T09:03:56;0.40;84.00
73777;DHT22;62088;50.240;2.696;2022-12-10T09:06:24;0.40;84.00
73777;DHT22;62088;50.240;2.696;2022-12-10T09:08:52;0.40;84.10
73777;DHT22;62088;50.240;2.696;2022-12-10T09:11:24;0.40;84.10
73777;DHT22;62088;50.240;2.696;2022-12-10T09:13:51;0.40;84.20
73777;DHT22;62088;50.240;2.696;2022-12-10T09:16:21;0.40;84.20
73777;DHT22;62088;50.240;2.696;2022-12-10T09:18:48;0.50;84.30
73777;DHT22;62088;50.240;2.696;2022-12-10T09:21:16;0.40;84.30
73777;DHT22;62088;50.240;2.696;2022-12-10T09:23:44;0.40;84.40
73777;DHT22;62088;50.240;2.696;2022-12-10T09:26:13;0.50;84.40
73777;DHT22;62088;50.240;2.696;2022-12-10T09:28:41;0.50;84.50
73777;DHT22;62088;50.240;2.696;2022-12-10T09:31:09;0.50;84.50
73777;DHT22;62088;50.240;2.696;2022-12-10T09:33:47;0.50;84.60
73777;DHT22;62088;50.240;2.696;2022-12-10T09:36:14;0.50;84.60
73777;DHT22;62088;50.240;2.696;2022-12-10T09:38:43;0.60;84.70
73777;DHT22;62088;50.240;2.696;2022-12-10T09:43:58;0.60;84.80
73777;DHT22;62088;50.240;2.696;2022-12-10T09:49:54;0.70;85.10
73777;DHT22;62088;50.240;2.696;2022-12-10T09:52:31;0.80;85.20
73777;DHT22;62088;50.240;2.696;2022-12-10T09:55:02;0.80;85.30
73777;DHT22;62088;50.240;2.696;2022-12-10T09:57:48;0.90;85.40
73777;DHT22;62088;50.240;2.696;2022-12-10T10:02:49;1.00;85.50
73777;DHT22;62088;50.240;2.696;2022-12-10T10:07:59;1.10;85.60
73777;DHT22;62088;50.240;2.696;2022-12-10T10:10:35;1.20;85.50
73777;DHT22;62088;50.240;2.696;2022-12-10T10:15:41;1.20;85.10
73777;DHT22;62088;50.240;2.696;2022-12-10T10:20:56;1.20;85.00
73777;DHT22;62088;50.240;2.696;2022-12-10T10:23:24;1.20;84.90
73777;DHT22;62088;50.240;2.696;2022-12-10T10:25:51;1.20;84.80
73777;DHT22;62088;50.240;2.696;2022-12-10T10:28:21;1.20;84.80
73777;DHT22;62088;50.240;2.696;2022-12-10T10:30:50;1.20;84.80
73777;DHT22;62088;50.240;2.696;2022-12-10T10:33:18;1.20;84.80
73777;DHT22;62088;50.240;2.696;2022-12-10T10:35:53;1.20;84.80
73777;DHT22;62088;50.240;2.696;2022-12-10T10:38:27;1.10;84.80
73777;DHT22;62088;50.240;2.696;2022-12-10T10:40:59;1.10;84.70
73777;DHT22;62088;50.240;2.696;2022-12-10T10:43:45;1.20;84.70
73777;DHT22;62088;50.240;2.696;2022-12-10T10:46:22;1.10;84.70
73777;DHT22;62088;50.240;2.696;2022-12-10T10:48:50;1.10;84.70
73777;DHT22;62088;50.240;2.696;2022-12-10T10:51:21;1.10;84.70
73777;DHT22;62088;50.240;2.696;2022-12-10T10:53:52;1.00;84.70
73777;DHT22;62088;50.240;2.696;2022-12-10T10:56:39;1.00;84.70
73777;DHT22;62088;50.240;2.696;2022-12-10T10:59:32;1.00;84.80
73777;DHT22;62088;50.240;2.696;2022-12-10T11:02:25;1.00;84.90
73777;DHT22;62088;50.240;2.696;2022-12-10T11:04:54;1.00;85.00
73777;DHT22;62088;50.240;2.696;2022-12-10T11:07:34;1.00;85.00
73777;DHT22;62088;50.240;2.696;2022-12-10T11:10:17;1.10;85.10
73777;DHT22;62088;50.240;2.696;2022-12-10T11:12:54;1.10;85.10
73777;DHT22;62088;50.240;2.696;2022-12-10T11:17:51;1.20;85.20
73777;DHT22;62088;50.240;2.696;2022-12-10T11:20:25;1.20;85.20
73777;DHT22;62088;50.240;2.696;2022-12-10T11:22:55;1.20;85.20
73777;DHT22;62088;50.240;2.696;2022-12-10T11:30:57;1.20;85.30
73777;DHT22;62088;50.240;2.696;2022-12-10T11:33:40;1.30;85.30
73777;DHT22;62088;50.240;2.696;2022-12-10T11:39:26;1.20;85.00
73777;DHT22;62088;50.240;2.696;2022-12-10T11:42:04;1.20;85.00
73777;DHT22;62088;50.240;2.696;2022-12-10T11:44:45;1.20;85.10
73777;DHT22;62088;50.240;2.696;2022-12-10T11:47:44;1.20;85.20
73777;DHT22;62088;50.240;2.696;2022-12-10T11:59:03;1.50;85.40
73777;DHT22;62088;50.240;2.696;2022-12-10T12:01:47;1.50;85.40
73777;DHT22;62088;50.240;2.696;2022-12-10T12:04:30;1.70;85.30
73777;DHT22;62088;50.240;2.696;2022-12-10T12:13:11;1.90;85.30
73777;DHT22;62088;50.240;2.696;2022-12-10T12:15:49;2.00;85.20
73777;DHT22;62088;50.240;2.696;2022-12-10T12:18:55;2.00;85.10
73777;DHT22;62088;50.240;2.696;2022-12-10T12:21:25;2.10;84.90
73777;DHT22;62088;50.240;2.696;2022-12-10T12:27:02;2.20;84.80
73777;DHT22;62088;50.240;2.696;2022-12-10T12:29:45;2.30;84.90
73777;DHT22;62088;50.240;2.696;2022-12-10T12:32:27;2.40;84.90
73777;DHT22;62088;50.240;2.696;2022-12-10T12:35:03;2.40;84.70
73777;DHT22;62088;50.240;2.696;2022-12-10T12:37:36;2.50;84.50
73777;DHT22;62088;50.240;2.696;2022-12-10T12:40:23;2.50;84.40
73777;DHT22;62088;50.240;2.696;2022-12-10T12:43:12;2.50;84.30
73777;DHT22;62088;50.240;2.696;2022-12-10T12:45:51;2.50;84.10
73777;DHT22;62088;50.240;2.696;2022-12-10T12:48:32;2.50;84.10
73777;DHT22;62088;50.240;2.696;2022-12-10T12:51:05;2.50;84.00
73777;DHT22;62088;50.240;2.696;2022-12-10T12:53:35;2.50;83.90
73777;DHT22;62088;50.240;2.696;2022-12-10T12:56:07;2.50;83.90
73777;DHT22;62088;50.240;2.696;2022-12-10T13:03:45;2.50;83.70
73777;DHT22;62088;50.240;2.696;2022-12-10T13:08:48;2.40;83.80
73777;DHT22;62088;50.240;2.696;2022-12-10T13:11:28;2.50;83.90
73777;DHT22;62088;50.240;2.696;2022-12-10T13:22:11;2.70;84.20
73777;DHT22;62088;50.240;2.696;2022-12-10T13:24:46;2.80;84.00
73777;DHT22;62088;50.240;2.696;2022-12-10T13:27:35;2.90;83.90
73777;DHT22;62088;50.240;2.696;2022-12-10T13:30:27;2.90;83.80
73777;DHT22;62088;50.240;2.696;2022-12-10T13:33:25;2.90;83.70
73777;DHT22;62088;50.240;2.696;2022-12-10T13:36:10;3.00;83.60
73777;DHT22;62088;50.240;2.696;2022-12-10T13:41:38;3.20;83.60
73777;DHT22;62088;50.240;2.696;2022-12-10T13:47:51;3.40;83.40
73777;DHT22;62088;50.240;2.696;2022-12-10T13:56:51;3.50;82.80
73777;DHT22;62088;50.240;2.696;2022-12-10T13:59:35;3.50;82.70
73777;DHT22;62088;50.240;2.696;2022-12-10T14:02:58;3.50;82.70
73777;DHT22;62088;50.240;2.696;2022-12-10T14:08:15;3.60;82.30
73777;DHT22;62088;50.240;2.696;2022-12-10T14:10:43;3.50;82.20
73777;DHT22;62088;50.240;2.696;2022-12-10T14:13:14;3.50;82.10
73777;DHT22;62088;50.240;2.696;2022-12-10T14:15:51;3.50;82.10
73777;DHT22;62088;50.240;2.696;2022-12-10T14:18:19;3.40;82.00
73777;DHT22;62088;50.240;2.696;2022-12-10T14:20:49;3.40;81.90
73777;DHT22;62088;50.240;2.696;2022-12-10T14:23:24;3.40;81.90
73777;DHT22;62088;50.240;2.696;2022-12-10T14:26:27;3.30;81.90
73777;DHT22;62088;50.240;2.696;2022-12-10T14:31:35;3.10;81.90
73777;DHT22;62088;50.240;2.696;2022-12-10T14:34:06;3.10;82.00
73777;DHT22;62088;50.240;2.696;2022-12-10T14:36:45;3.00;82.00
73777;DHT22;62088;50.240;2.696;2022-12-10T14:39:32;3.00;82.10
73777;DHT22;62088;50.240;2.696;2022-12-10T14:42:05;2.90;82.20
73777;DHT22;62088;50.240;2.696;2022-12-10T14:44:37;2.90;82.30
73777;DHT22;62088;50.240;2.696;2022-12-10T14:47:15;2.80;82.40
73777;DHT22;62088;50.240;2.696;2022-12-10T14:49:45;2.80;82.50
73777;DHT22;62088;50.240;2.696;2022-12-10T14:52:24;2.70;82.60
73777;DHT22;62088;50.240;2.696;2022-12-10T14:54:52;2.70;82.70
73777;DHT22;62088;50.240;2.696;2022-12-10T14:57:25;2.70;82.80
73777;DHT22;62088;50.240;2.696;2022-12-10T15:00:06;2.60;82.90
73777;DHT22;62088;50.240;2.696;2022-12-10T15:02:37;2.60;83.00
73777;DHT22;62088;50.240;2.696;2022-12-10T15:05:28;2.60;83.00
73777;DHT22;62088;50.240;2.696;2022-12-10T15:08:13;2.60;83.10
73777;DHT22;62088;50.240;2.696;2022-12-10T15:10:44;2.50;83.10
73777;DHT22;62088;50.240;2.696;2022-12-10T15:13:24;2.50;83.20
73777;DHT22;62088;50.240;2.696;2022-12-10T15:15:54;2.50;83.30
73777;DHT22;62088;50.240;2.696;2022-12-10T15:21:05;2.40;83.30
73777;DHT22;62088;50.240;2.696;2022-12-10T15:23:34;2.40;83.30
73777;DHT22;62088;50.240;2.696;2022-12-10T15:26:20;2.40;83.40
73777;DHT22;62088;50.240;2.696;2022-12-10T15:28:49;2.30;83.40
73777;DHT22;62088;50.240;2.696;2022-12-10T15:33:57;2.20;83.40
73777;DHT22;62088;50.240;2.696;2022-12-10T15:36:39;2.20;83.50
73777;DHT22;62088;50.240;2.696;2022-12-10T15:39:17;2.10;83.50
73777;DHT22;62088;50.240;2.696;2022-12-10T15:47:23;2.00;83.60
73777;DHT22;62088;50.240;2.696;2022-12-10T15:49:53;1.90;83.70
73777;DHT22;62088;50.240;2.696;2022-12-10T15:52:23;1.90;83.80
73777;DHT22;62088;50.240;2.696;2022-12-10T15:54:53;1.90;83.80
73777;DHT22;62088;50.240;2.696;2022-12-10T15:57:40;1.90;83.90
73777;DHT22;62088;50.240;2.696;2022-12-10T16:00:25;1.90;83.90
73777;DHT22;62088;50.240;2.696;2022-12-10T16:02:53;1.80;84.00
73777;DHT22;62088;50.240;2.696;2022-12-10T16:05:25;1.80;84.10
73777;DHT22;62088;50.240;2.696;2022-12-10T16:07:54;1.80;84.10
73777;DHT22;62088;50.240;2.696;2022-12-10T16:10:23;1.70;84.20
73777;DHT22;62088;50.240;2.696;2022-12-10T16:13:05;1.70;84.20
73777;DHT22;62088;50.240;2.696;2022-12-10T16:15:37;1.70;84.30
73777;DHT22;62088;50.240;2.696;2022-12-10T16:18:08;1.70;84.30
73777;DHT22;62088;50.240;2.696;2022-12-10T16:20:36;1.70;84.40
73777;DHT22;62088;50.240;2.696;2022-12-10T16:23:03;1.70;84.40
73777;DHT22;62088;50.240;2.696;2022-12-10T16:25:33;1.70;84.40
73777;DHT22;62088;50.240;2.696;2022-12-10T16:28:02;1.60;84.40
73777;DHT22;62088;50.240;2.696;2022-12-10T16:30:43;1.60;84.50
73777;DHT22;62088;50.240;2.696;2022-12-10T16:33:15;1.60;84.50
73777;DHT22;62088;50.240;2.696;2022-12-10T16:35:42;1.60;84.50
73777;DHT22;62088;50.240;2.696;2022-12-10T16:38:09;1.60;84.60
73777;DHT22;62088;50.240;2.696;2022-12-10T16:40:38;1.60;84.60
73777;DHT22;62088;50.240;2.696;2022-12-10T16:43:06;1.60;84.60
73777;DHT22;62088;50.240;2.696;2022-12-10T16:45:36;1.50;84.70
73777;DHT22;62088;50.240;2.696;2022-12-10T16:48:04;1.50;84.70
73777;DHT22;62088;50.240;2.696;2022-12-10T16:50:31;1.50;84.70
73777;DHT22;62088;50.240;2.696;2022-12-10T16:53:03;1.60;84.80
73777;DHT22;62088;50.240;2.696;2022-12-10T16:55:33;1.60;84.80
73777;DHT22;62088;50.240;2.696;2022-12-10T16:58:00;1.60;84.90
73777;DHT22;62088;50.240;2.696;2022-12-10T17:00:28;1.60;84.90
73777;DHT22;62088;50.240;2.696;2022-12-10T17:02:55;1.60;85.00
73777;DHT22;62088;50.240;2.696;2022-12-10T17:05:39;1.60;85.00
73777;DHT22;62088;50.240;2.696;2022-12-10T17:08:09;1.60;85.10
73777;DHT22;62088;50.240;2.696;2022-12-10T17:10:36;1.60;85.10
73777;DHT22;62088;50.240;2.696;2022-12-10T17:13:23;1.70;85.20
73777;DHT22;62088;50.240;2.696;2022-12-10T17:15:52;1.70;85.20
73777;DHT22;62088;50.240;2.696;2022-12-10T17:18:20;1.70;85.30
73777;DHT22;62088;50.240;2.696;2022-12-10T17:20:48;1.70;85.30
73777;DHT22;62088;50.240;2.696;2022-12-10T17:23:15;1.70;85.30
73777;DHT22;62088;50.240;2.696;2022-12-10T17:25:43;1.70;85.40
73777;DHT22;62088;50.240;2.696;2022-12-10T17:28:15;1.70;85.40
73777;DHT22;62088;50.240;2.696;2022-12-10T17:30:43;1.70;85.50
73777;DHT22;62088;50.240;2.696;2022-12-10T17:33:14;1.70;85.50
73777;DHT22;62088;50.240;2.696;2022-12-10T17:35:42;1.70;85.60
73777;DHT22;62088;50.240;2.696;2022-12-10T17:38:14;1.70;85.60
73777;DHT22;62088;50.240;2.696;2022-12-10T17:40:42;1.70;85.70
73777;DHT22;62088;50.240;2.696;2022-12-10T17:43:09;1.70;85.70
73777;DHT22;62088;50.240;2.696;2022-12-10T17:45:37;1.70;85.80
73777;DHT22;62088;50.240;2.696;2022-12-10T17:48:04;1.70;85.80
73777;DHT22;62088;50.240;2.696;2022-12-10T17:50:34;1.70;85.80
73777;DHT22;62088;50.240;2.696;2022-12-10T17:53:04;1.70;85.90
73777;DHT22;62088;50.240;2.696;2022-12-10T17:55:32;1.70;85.90
73777;DHT22;62088;50.240;2.696;2022-12-10T17:57:59;1.70;85.90
73777;DHT22;62088;50.240;2.696;2022-12-10T18:00:29;1.70;85.90
73777;DHT22;62088;50.240;2.696;2022-12-10T18:02:57;1.70;86.00
73777;DHT22;62088;50.240;2.696;2022-12-10T18:05:24;1.70;86.00
73777;DHT22;62088;50.240;2.696;2022-12-10T18:07:53;1.70;86.00